sensor_id;sensor_type;location;lat;lon;timestamp;P1;durP1;ratioP1;P2;durP2;ratioP2
809;SDS011;387;48.772;9.186;2023-11-19T00:00:06;4.10;;;2.90;;
809;SDS011;387;48.772;9.186;2023-11-19T00:02:37;2.97;;;1.87;;
809;SDS011;387;48.772;9.186;2023-11-19T00:05:05;6.80;;;2.90;;
809;SDS011;387;48.772;9.186;2023-11-19T00:07:34;5.30;;;3.20;;
809;SDS011;387;48.772;9.186;2023-11-19T00:10:01;3.60;;;2.37;;
809;SDS011;387;48.772;9.186;2023-11-19T00:12:36;4.90;;;2.47;;
809;SDS011;387;48.772;9.186;2023-11-19T00:15:02;4.53;;;2.70;;
809;SDS011;387;48.772;9.186;2023-11-19T00:17:28;4.50;;;2.50;;
809;SDS011;387;48.772;9.186;2023-11-19T00:19:54;5.50;;;2.80;;
809;SDS011;387;48.772;9.186;2023-11-19T00:22:19;3.33;;;2.50;;
809;SDS011;387;48.772;9.186;2023-11-19T00:24:46;4.43;;;2.63;;
809;SDS011;387;48.772;9.186;2023-11-19T00:27:12;4.20;;;2.60;;
809;SDS011;387;48.772;9.186;2023-11-19T00:29:37;3.70;;;2.40;;
809;SDS011;387;48.772;9.186;2023-11-19T00:32:03;3.60;;;2.63;;
809;SDS011;387;48.772;9.186;2023-11-19T00:34:30;7.23;;;2.87;;
809;SDS011;387;48.772;9.186;2023-11-19T00:36:56;7.17;;;3.03;;
809;SDS011;387;48.772;9.186;2023-11-19T00:39:21;4.50;;;2.33;;
809;SDS011;387;48.772;9.186;2023-11-19T00:41:47;3.23;;;2.70;;
809;SDS011;387;48.772;9.186;2023-11-19T00:44:13;3.63;;;2.50;;
809;SDS011;387;48.772;9.186;2023-11-19T00:46:39;4.20;;;2.60;;
809;SDS011;387;48.772;9.186;2023-11-19T00:49:04;3.90;;;2.40;;
809;SDS011;387;48.772;9.186;2023-11-19T00:51:30;3.60;;;2.20;;
809;SDS011;387;48.772;9.186;2023-11-19T00:53:56;5.77;;;3.93;;
809;SDS011;387;48.772;9.186;2023-11-19T00:56:23;3.60;;;2.20;;
809;SDS011;387;48.772;9.186;2023-11-19T00:58:49;3.53;;;2.20;;
809;SDS011;387;48.772;9.186;2023-11-19T01:01:14;2.23;;;1.97;;
809;SDS011;387;48.772;9.186;2023-11-19T01:03:40;4.23;;;2.33;;
809;SDS011;387;48.772;9.186;2023-11-19T01:06:06;3.13;;;2.30;;
809;SDS011;387;48.772;9.186;2023-11-19T01:08:33;3.53;;;2.00;;
809;SDS011;387;48.772;9.186;2023-11-19T01:11:00;2.73;;;2.10;;
809;SDS011;387;48.772;9.186;2023-11-19T01:13:27;2.93;;;2.17;;
809;SDS011;387;48.772;9.186;2023-11-19T01:15:52;2.53;;;1.80;;
809;SDS011;387;48.772;9.186;2023-11-19T01:18:18;3.23;;;1.63;;
809;SDS011;387;48.772;9.186;2023-11-19T01:20:44;4.00;;;1.70;;
809;SDS011;387;48.772;9.186;2023-11-19T01:23:09;2.93;;;1.80;;
809;SDS011;387;48.772;9.186;2023-11-19T01:25:35;2.90;;;1.80;;
809;SDS011;387;48.772;9.186;2023-11-19T01:28:00;2.87;;;1.67;;
809;SDS011;387;48.772;9.186;2023-11-19T01:30:27;2.50;;;1.40;;
809;SDS011;387;48.772;9.186;2023-11-19T01:32:53;1.93;;;1.23;;
809;SDS011;387;48.772;9.186;2023-11-19T01:35:18;4.60;;;1.17;;
809;SDS011;387;48.772;9.186;2023-11-19T01:37:44;1.60;;;1.17;;
809;SDS011;387;48.772;9.186;2023-11-19T01:40:10;1.50;;;1.20;;
809;SDS011;387;48.772;9.186;2023-11-19T01:42:39;3.57;;;1.40;;
809;SDS011;387;48.772;9.186;2023-11-19T01:45:05;2.77;;;1.53;;
809;SDS011;387;48.772;9.186;2023-11-19T01:47:34;2.50;;;1.63;;
809;SDS011;387;48.772;9.186;2023-11-19T01:50:01;2.57;;;1.97;;
809;SDS011;387;48.772;9.186;2023-11-19T01:52:31;2.80;;;1.50;;
809;SDS011;387;48.772;9.186;2023-11-19T01:54:59;2.30;;;1.60;;
809;SDS011;387;48.772;9.186;2023-11-19T01:57:25;2.97;;;2.10;;
809;SDS011;387;48.772;9.186;2023-11-19T01:59:51;2.67;;;1.50;;
809;SDS011;387;48.772;9.186;2023-11-19T02:02:18;4.43;;;1.97;;
809;SDS011;387;48.772;9.186;2023-11-19T02:04:45;1.93;;;1.30;;
809;SDS011;387;48.772;9.186;2023-11-19T02:07:13;2.03;;;1.30;;
809;SDS011;387;48.772;9.186;2023-11-19T02:09:42;2.10;;;1.50;;
809;SDS011;387;48.772;9.186;2023-11-19T02:12:08;4.60;;;2.30;;
809;SDS011;387;48.772;9.186;2023-11-19T02:14:36;5.40;;;2.70;;
809;SDS011;387;48.772;9.186;2023-11-19T02:17:02;4.80;;;2.60;;
809;SDS011;387;48.772;9.186;2023-11-19T02:19:29;3.37;;;2.60;;
809;SDS011;387;48.772;9.186;2023-11-19T02:21:54;4.10;;;2.80;;
809;SDS011;387;48.772;9.186;2023-11-19T02:24:21;5.43;;;3.17;;
809;SDS011;387;48.772;9.186;2023-11-19T02:26:58;4.60;;;2.40;;
809;SDS011;387;48.772;9.186;2023-11-19T02:29:49;3.87;;;2.67;;
809;SDS011;387;48.772;9.186;2023-11-19T02:32:15;6.40;;;2.43;;
809;SDS011;387;48.772;9.186;2023-11-19T02:34:41;4.37;;;2.40;;
809;SDS011;387;48.772;9.186;2023-11-19T02:37:07;7.30;;;3.30;;
809;SDS011;387;48.772;9.186;2023-11-19T02:39:33;6.97;;;4.10;;
809;SDS011;387;48.772;9.186;2023-11-19T02:41:58;4.17;;;2.90;;
809;SDS011;387;48.772;9.186;2023-11-19T02:44:25;5.67;;;3.27;;
809;SDS011;387;48.772;9.186;2023-11-19T02:46:53;4.53;;;2.93;;
809;SDS011;387;48.772;9.186;2023-11-19T02:49:18;5.00;;;2.60;;
809;SDS011;387;48.772;9.186;2023-11-19T02:51:44;4.60;;;2.87;;
809;SDS011;387;48.772;9.186;2023-11-19T02:54:10;5.70;;;3.27;;
809;SDS011;387;48.772;9.186;2023-11-19T02:56:35;3.83;;;2.80;;
809;SDS011;387;48.772;9.186;2023-11-19T02:59:02;3.60;;;2.60;;
809;SDS011;387;48.772;9.186;2023-11-19T03:01:40;3.23;;;1.87;;
809;SDS011;387;48.772;9.186;2023-11-19T03:04:08;3.10;;;2.00;;
809;SDS011;387;48.772;9.186;2023-11-19T03:06:37;2.60;;;2.00;;
809;SDS011;387;48.772;9.186;2023-11-19T03:09:02;5.53;;;3.13;;
809;SDS011;387;48.772;9.186;2023-11-19T03:11:34;7.30;;;3.67;;
809;SDS011;387;48.772;9.186;2023-11-19T03:14:00;4.50;;;2.90;;
809;SDS011;387;48.772;9.186;2023-11-19T03:16:27;4.67;;;3.00;;
809;SDS011;387;48.772;9.186;2023-11-19T03:18:53;4.93;;;3.50;;
809;SDS011;387;48.772;9.186;2023-11-19T03:21:19;7.47;;;4.40;;
809;SDS011;387;48.772;9.186;2023-11-19T03:23:45;4.10;;;2.87;;
809;SDS011;387;48.772;9.186;2023-11-19T03:26:10;5.47;;;3.40;;
809;SDS011;387;48.772;9.186;2023-11-19T03:28:36;5.30;;;3.07;;
809;SDS011;387;48.772;9.186;2023-11-19T03:31:04;4.87;;;2.73;;
809;SDS011;387;48.772;9.186;2023-11-19T03:33:33;3.33;;;2.27;;
809;SDS011;387;48.772;9.186;2023-11-19T03:35:58;4.47;;;2.60;;
809;SDS011;387;48.772;9.186;2023-11-19T03:38:24;3.50;;;2.23;;
809;SDS011;387;48.772;9.186;2023-11-19T03:40:50;3.77;;;2.20;;
809;SDS011;387;48.772;9.186;2023-11-19T03:43:15;3.10;;;1.63;;
809;SDS011;387;48.772;9.186;2023-11-19T03:45:41;3.47;;;2.23;;
809;SDS011;387;48.772;9.186;2023-11-19T03:48:06;2.47;;;1.40;;
809;SDS011;387;48.772;9.186;2023-11-19T03:50:32;1.40;;;1.30;;
809;SDS011;387;48.772;9.186;2023-11-19T03:52:58;2.97;;;1.83;;
809;SDS011;387;48.772;9.186;2023-11-19T03:55:24;1.90;;;1.13;;
809;SDS011;387;48.772;9.186;2023-11-19T03:57:49;2.63;;;1.60;;
809;SDS011;387;48.772;9.186;2023-11-19T04:00:15;2.77;;;1.43;;
809;SDS011;387;48.772;9.186;2023-11-19T04:02:41;2.90;;;1.33;;
809;SDS011;387;48.772;9.186;2023-11-19T04:05:07;2.90;;;1.13;;
809;SDS011;387;48.772;9.186;2023-11-19T04:07:32;1.40;;;0.90;;
809;SDS011;387;48.772;9.186;2023-11-19T04:09:59;1.10;;;0.73;;
809;SDS011;387;48.772;9.186;2023-11-19T04:12:25;1.43;;;0.60;;
809;SDS011;387;48.772;9.186;2023-11-19T04:14:50;0.73;;;0.50;;
809;SDS011;387;48.772;9.186;2023-11-19T04:17:17;0.80;;;0.40;;
809;SDS011;387;48.772;9.186;2023-11-19T04:19:42;2.90;;;0.77;;
809;SDS011;387;48.772;9.186;2023-11-19T04:22:08;0.60;;;0.40;;
809;SDS011;387;48.772;9.186;2023-11-19T04:24:34;1.00;;;0.50;;
809;SDS011;387;48.772;9.186;2023-11-19T04:27:00;0.60;;;0.40;;
809;SDS011;387;48.772;9.186;2023-11-19T04:29:25;1.57;;;0.70;;
809;SDS011;387;48.772;9.186;2023-11-19T04:31:51;4.10;;;1.00;;
809;SDS011;387;48.772;9.186;2023-11-19T04:34:17;0.60;;;0.40;;
809;SDS011;387;48.772;9.186;2023-11-19T04:36:42;0.60;;;0.50;;
809;SDS011;387;48.772;9.186;2023-11-19T04:39:08;1.00;;;0.63;;
809;SDS011;387;48.772;9.186;2023-11-19T04:41:45;2.87;;;0.60;;
809;SDS011;387;48.772;9.186;2023-11-19T04:44:12;1.20;;;0.60;;
809;SDS011;387;48.772;9.186;2023-11-19T04:46:37;1.10;;;0.60;;
809;SDS011;387;48.772;9.186;2023-11-19T04:49:03;2.00;;;1.37;;
809;SDS011;387;48.772;9.186;2023-11-19T04:51:29;0.90;;;0.67;;
809;SDS011;387;48.772;9.186;2023-11-19T04:53:55;0.60;;;0.40;;
809;SDS011;387;48.772;9.186;2023-11-19T04:56:21;1.23;;;0.60;;
809;SDS011;387;48.772;9.186;2023-11-19T04:58:48;0.70;;;0.50;;
809;SDS011;387;48.772;9.186;2023-11-19T05:01:14;0.60;;;0.43;;
809;SDS011;387;48.772;9.186;2023-11-19T05:03:43;1.00;;;0.60;;
809;SDS011;387;48.772;9.186;2023-11-19T05:06:09;1.57;;;0.77;;
809;SDS011;387;48.772;9.186;2023-11-19T05:08:35;1.90;;;0.60;;
809;SDS011;387;48.772;9.186;2023-11-19T05:11:00;0.77;;;0.50;;
809;SDS011;387;48.772;9.186;2023-11-19T05:13:26;1.33;;;0.60;;
809;SDS011;387;48.772;9.186;2023-11-19T05:15:52;0.60;;;0.50;;
809;SDS011;387;48.772;9.186;2023-11-19T05:18:17;0.87;;;0.60;;
809;SDS011;387;48.772;9.186;2023-11-19T05:20:43;0.90;;;0.50;;
809;SDS011;387;48.772;9.186;2023-11-19T05:23:10;0.70;;;0.60;;
809;SDS011;387;48.772;9.186;2023-11-19T05:25:36;0.80;;;0.50;;
809;SDS011;387;48.772;9.186;2023-11-19T05:28:02;0.80;;;0.50;;
809;SDS011;387;48.772;9.186;2023-11-19T05:30:27;0.90;;;0.60;;
809;SDS011;387;48.772;9.186;2023-11-19T05:32:53;0.70;;;0.50;;
809;SDS011;387;48.772;9.186;2023-11-19T05:35:18;1.10;;;0.60;;
809;SDS011;387;48.772;9.186;2023-11-19T05:37:44;0.70;;;0.40;;
809;SDS011;387;48.772;9.186;2023-11-19T05:40:10;1.67;;;0.60;;
809;SDS011;387;48.772;9.186;2023-11-19T05:42:42;2.20;;;0.50;;
809;SDS011;387;48.772;9.186;2023-11-19T05:45:10;0.60;;;0.50;;
809;SDS011;387;48.772;9.186;2023-11-19T05:47:36;1.10;;;0.60;;
809;SDS011;387;48.772;9.186;2023-11-19T05:50:02;0.60;;;0.50;;
809;SDS011;387;48.772;9.186;2023-11-19T05:52:30;0.80;;;0.60;;
809;SDS011;387;48.772;9.186;2023-11-19T05:54:59;1.00;;;0.70;;
809;SDS011;387;48.772;9.186;2023-11-19T05:57:34;2.73;;;0.83;;
809;SDS011;387;48.772;9.186;2023-11-19T06:00:00;0.60;;;0.50;;
809;SDS011;387;48.772;9.186;2023-11-19T06:02:25;0.67;;;0.50;;
809;SDS011;387;48.772;9.186;2023-11-19T06:04:52;0.70;;;0.50;;
809;SDS011;387;48.772;9.186;2023-11-19T06:07:18;0.87;;;0.67;;
809;SDS011;387;48.772;9.186;2023-11-19T06:09:44;0.90;;;0.53;;
809;SDS011;387;48.772;9.186;2023-11-19T06:12:10;0.90;;;0.50;;
809;SDS011;387;48.772;9.186;2023-11-19T06:14:36;0.80;;;0.70;;
809;SDS011;387;48.772;9.186;2023-11-19T06:17:01;1.23;;;0.63;;
809;SDS011;387;48.772;9.186;2023-11-19T06:19:29;0.80;;;0.60;;
809;SDS011;387;48.772;9.186;2023-11-19T06:21:54;0.60;;;0.50;;
809;SDS011;387;48.772;9.186;2023-11-19T06:24:20;1.20;;;0.60;;
809;SDS011;387;48.772;9.186;2023-11-19T06:26:45;0.90;;;0.57;;
809;SDS011;387;48.772;9.186;2023-11-19T06:29:11;0.90;;;0.60;;
809;SDS011;387;48.772;9.186;2023-11-19T06:31:36;1.43;;;0.50;;
809;SDS011;387;48.772;9.186;2023-11-19T06:34:06;0.90;;;0.70;;
809;SDS011;387;48.772;9.186;2023-11-19T06:36:31;0.60;;;0.50;;
809;SDS011;387;48.772;9.186;2023-11-19T06:38:57;0.90;;;0.50;;
809;SDS011;387;48.772;9.186;2023-11-19T06:41:22;0.80;;;0.60;;
809;SDS011;387;48.772;9.186;2023-11-19T06:43:48;0.90;;;0.67;;
809;SDS011;387;48.772;9.186;2023-11-19T06:46:14;1.23;;;0.70;;
809;SDS011;387;48.772;9.186;2023-11-19T06:48:41;0.70;;;0.50;;
809;SDS011;387;48.772;9.186;2023-11-19T06:51:08;0.90;;;0.70;;
809;SDS011;387;48.772;9.186;2023-11-19T06:53:34;1.00;;;0.70;;
809;SDS011;387;48.772;9.186;2023-11-19T06:56:01;0.90;;;0.73;;
809;SDS011;387;48.772;9.186;2023-11-19T06:58:30;0.90;;;0.77;;
809;SDS011;387;48.772;9.186;2023-11-19T07:00:56;1.07;;;0.70;;
809;SDS011;387;48.772;9.186;2023-11-19T07:03:21;0.70;;;0.63;;
809;SDS011;387;48.772;9.186;2023-11-19T07:05:47;1.00;;;0.70;;
809;SDS011;387;48.772;9.186;2023-11-19T07:08:13;0.90;;;0.70;;
809;SDS011;387;48.772;9.186;2023-11-19T07:10:39;0.90;;;0.70;;
809;SDS011;387;48.772;9.186;2023-11-19T07:13:05;1.40;;;0.70;;
809;SDS011;387;48.772;9.186;2023-11-19T07:15:31;1.30;;;0.70;;
809;SDS011;387;48.772;9.186;2023-11-19T07:17:57;1.03;;;0.67;;
809;SDS011;387;48.772;9.186;2023-11-19T07:20:24;0.80;;;0.60;;
809;SDS011;387;48.772;9.186;2023-11-19T07:22:51;2.13;;;0.80;;
809;SDS011;387;48.772;9.186;2023-11-19T07:25:17;0.90;;;0.60;;
809;SDS011;387;48.772;9.186;2023-11-19T07:27:43;1.87;;;0.80;;
809;SDS011;387;48.772;9.186;2023-11-19T07:30:09;0.70;;;0.70;;
809;SDS011;387;48.772;9.186;2023-11-19T07:32:35;2.47;;;0.80;;
809;SDS011;387;48.772;9.186;2023-11-19T07:35:00;0.90;;;0.70;;
809;SDS011;387;48.772;9.186;2023-11-19T07:37:26;2.13;;;1.00;;
809;SDS011;387;48.772;9.186;2023-11-19T07:39:51;0.80;;;0.70;;
809;SDS011;387;48.772;9.186;2023-11-19T07:42:17;1.10;;;0.70;;
809;SDS011;387;48.772;9.186;2023-11-19T07:44:43;1.00;;;0.70;;
809;SDS011;387;48.772;9.186;2023-11-19T07:47:09;1.57;;;0.80;;
809;SDS011;387;48.772;9.186;2023-11-19T07:49:35;2.20;;;0.60;;
809;SDS011;387;48.772;9.186;2023-11-19T07:52:00;1.57;;;0.80;;
809;SDS011;387;48.772;9.186;2023-11-19T07:54:28;1.53;;;0.80;;
809;SDS011;387;48.772;9.186;2023-11-19T07:56:53;1.00;;;0.60;;
809;SDS011;387;48.772;9.186;2023-11-19T07:59:19;1.10;;;0.73;;
809;SDS011;387;48.772;9.186;2023-11-19T08:01:45;0.83;;;0.70;;
809;SDS011;387;48.772;9.186;2023-11-19T08:04:10;1.17;;;0.90;;
809;SDS011;387;48.772;9.186;2023-11-19T08:06:36;0.77;;;0.67;;
809;SDS011;387;48.772;9.186;2023-11-19T08:09:02;0.80;;;0.60;;
809;SDS011;387;48.772;9.186;2023-11-19T08:11:27;1.00;;;0.70;;
809;SDS011;387;48.772;9.186;2023-11-19T08:13:53;1.17;;;0.83;;
809;SDS011;387;48.772;9.186;2023-11-19T08:16:18;1.07;;;0.60;;
809;SDS011;387;48.772;9.186;2023-11-19T08:18:44;1.20;;;0.80;;
809;SDS011;387;48.772;9.186;2023-11-19T08:21:10;3.93;;;0.80;;
809;SDS011;387;48.772;9.186;2023-11-19T08:23:36;2.00;;;1.20;;
809;SDS011;387;48.772;9.186;2023-11-19T08:26:02;2.73;;;1.00;;
809;SDS011;387;48.772;9.186;2023-11-19T08:28:29;1.60;;;0.80;;
809;SDS011;387;48.772;9.186;2023-11-19T08:30:56;1.10;;;0.83;;
809;SDS011;387;48.772;9.186;2023-11-19T08:33:21;2.93;;;0.87;;
809;SDS011;387;48.772;9.186;2023-11-19T08:35:47;2.10;;;1.00;;
809;SDS011;387;48.772;9.186;2023-11-19T08:38:13;2.30;;;0.97;;
809;SDS011;387;48.772;9.186;2023-11-19T08:40:39;1.20;;;0.93;;
809;SDS011;387;48.772;9.186;2023-11-19T08:43:04;2.90;;;1.20;;
809;SDS011;387;48.772;9.186;2023-11-19T08:45:31;1.10;;;0.77;;
809;SDS011;387;48.772;9.186;2023-11-19T08:47:57;1.77;;;0.80;;
809;SDS011;387;48.772;9.186;2023-11-19T08:50:22;2.07;;;0.90;;
809;SDS011;387;48.772;9.186;2023-11-19T08:52:48;1.30;;;0.90;;
809;SDS011;387;48.772;9.186;2023-11-19T08:55:14;1.30;;;0.70;;
809;SDS011;387;48.772;9.186;2023-11-19T08:57:40;1.30;;;0.70;;
809;SDS011;387;48.772;9.186;2023-11-19T09:00:05;1.67;;;1.00;;
809;SDS011;387;48.772;9.186;2023-11-19T09:02:35;2.50;;;0.90;;
809;SDS011;387;48.772;9.186;2023-11-19T09:05:02;1.17;;;1.03;;
809;SDS011;387;48.772;9.186;2023-11-19T09:07:28;1.20;;;0.80;;
809;SDS011;387;48.772;9.186;2023-11-19T09:09:53;1.30;;;0.93;;
809;SDS011;387;48.772;9.186;2023-11-19T09:12:19;1.40;;;0.83;;
809;SDS011;387;48.772;9.186;2023-11-19T09:14:44;3.17;;;1.20;;
809;SDS011;387;48.772;9.186;2023-11-19T09:17:11;1.33;;;0.73;;
809;SDS011;387;48.772;9.186;2023-11-19T09:19:36;5.50;;;1.43;;
809;SDS011;387;48.772;9.186;2023-11-19T09:22:02;0.90;;;0.70;;
809;SDS011;387;48.772;9.186;2023-11-19T09:24:28;3.33;;;0.80;;
809;SDS011;387;48.772;9.186;2023-11-19T09:26:54;1.47;;;1.00;;
809;SDS011;387;48.772;9.186;2023-11-19T09:29:21;1.10;;;0.80;;
809;SDS011;387;48.772;9.186;2023-11-19T09:31:46;2.10;;;0.87;;
809;SDS011;387;48.772;9.186;2023-11-19T09:34:12;2.10;;;1.00;;
809;SDS011;387;48.772;9.186;2023-11-19T09:36:38;1.00;;;0.87;;
809;SDS011;387;48.772;9.186;2023-11-19T09:39:04;1.10;;;0.90;;
809;SDS011;387;48.772;9.186;2023-11-19T09:41:30;1.70;;;1.20;;
809;SDS011;387;48.772;9.186;2023-11-19T09:43:57;3.40;;;1.30;;
809;SDS011;387;48.772;9.186;2023-11-19T09:46:23;3.23;;;1.47;;
809;SDS011;387;48.772;9.186;2023-11-19T09:48:51;4.00;;;2.13;;
809;SDS011;387;48.772;9.186;2023-11-19T09:51:19;2.63;;;1.33;;
809;SDS011;387;48.772;9.186;2023-11-19T09:53:45;1.73;;;1.20;;
809;SDS011;387;48.772;9.186;2023-11-19T09:56:11;1.30;;;1.07;;
809;SDS011;387;48.772;9.186;2023-11-19T09:58:37;3.53;;;1.10;;
809;SDS011;387;48.772;9.186;2023-11-19T10:01:03;4.23;;;1.10;;
809;SDS011;387;48.772;9.186;2023-11-19T10:03:32;0.90;;;0.80;;
809;SDS011;387;48.772;9.186;2023-11-19T10:06:04;1.50;;;1.10;;
809;SDS011;387;48.772;9.186;2023-11-19T10:08:32;3.57;;;1.00;;
809;SDS011;387;48.772;9.186;2023-11-19T10:10:58;1.40;;;1.20;;
809;SDS011;387;48.772;9.186;2023-11-19T10:13:27;1.80;;;1.10;;
809;SDS011;387;48.772;9.186;2023-11-19T10:15:54;1.43;;;0.70;;
809;SDS011;387;48.772;9.186;2023-11-19T10:18:25;4.60;;;1.10;;
809;SDS011;387;48.772;9.186;2023-11-19T10:20:51;1.23;;;1.00;;
809;SDS011;387;48.772;9.186;2023-11-19T10:23:17;1.40;;;0.90;;
809;SDS011;387;48.772;9.186;2023-11-19T10:25:43;3.03;;;1.20;;
809;SDS011;387;48.772;9.186;2023-11-19T10:28:08;3.80;;;1.30;;
809;SDS011;387;48.772;9.186;2023-11-19T10:30:34;2.93;;;1.67;;
809;SDS011;387;48.772;9.186;2023-11-19T10:35:50;2.53;;;1.10;;
809;SDS011;387;48.772;9.186;2023-11-19T10:38:18;3.83;;;1.20;;
809;SDS011;387;48.772;9.186;2023-11-19T10:40:44;2.60;;;1.30;;
809;SDS011;387;48.772;9.186;2023-11-19T10:43:10;6.13;;;1.20;;
809;SDS011;387;48.772;9.186;2023-11-19T10:45:36;2.37;;;1.10;;
809;SDS011;387;48.772;9.186;2023-11-19T10:48:03;1.63;;;1.00;;
809;SDS011;387;48.772;9.186;2023-11-19T10:50:33;1.93;;;1.10;;
809;SDS011;387;48.772;9.186;2023-11-19T10:52:59;2.40;;;0.97;;
809;SDS011;387;48.772;9.186;2023-11-19T10:55:29;4.07;;;1.00;;
809;SDS011;387;48.772;9.186;2023-11-19T10:58:03;1.30;;;0.93;;
809;SDS011;387;48.772;9.186;2023-11-19T11:00:39;1.67;;;1.10;;
809;SDS011;387;48.772;9.186;2023-11-19T11:03:37;1.97;;;1.00;;
809;SDS011;387;48.772;9.186;2023-11-19T11:06:05;2.40;;;1.10;;
809;SDS011;387;48.772;9.186;2023-11-19T11:08:31;3.10;;;1.20;;
809;SDS011;387;48.772;9.186;2023-11-19T11:10:59;3.80;;;1.07;;
809;SDS011;387;48.772;9.186;2023-11-19T11:13:27;2.00;;;0.93;;
809;SDS011;387;48.772;9.186;2023-11-19T11:15:54;4.60;;;0.80;;
809;SDS011;387;48.772;9.186;2023-11-19T11:18:23;1.73;;;0.90;;
809;SDS011;387;48.772;9.186;2023-11-19T11:21:00;3.10;;;1.07;;
809;SDS011;387;48.772;9.186;2023-11-19T11:26:33;2.20;;;1.10;;
809;SDS011;387;48.772;9.186;2023-11-19T11:29:17;2.90;;;1.50;;
809;SDS011;387;48.772;9.186;2023-11-19T11:32:07;4.90;;;1.40;;
809;SDS011;387;48.772;9.186;2023-11-19T11:38:06;1.33;;;0.80;;
809;SDS011;387;48.772;9.186;2023-11-19T11:40:33;6.30;;;1.30;;
809;SDS011;387;48.772;9.186;2023-11-19T11:42:59;3.63;;;1.30;;
809;SDS011;387;48.772;9.186;2023-11-19T11:45:40;4.50;;;1.50;;
809;SDS011;387;48.772;9.186;2023-11-19T11:50:50;2.07;;;0.93;;
809;SDS011;387;48.772;9.186;2023-11-19T11:53:17;1.47;;;0.90;;
809;SDS011;387;48.772;9.186;2023-11-19T11:58:13;2.00;;;1.00;;
809;SDS011;387;48.772;9.186;2023-11-19T12:00:42;1.90;;;0.90;;
809;SDS011;387;48.772;9.186;2023-11-19T12:03:08;2.63;;;1.00;;
809;SDS011;387;48.772;9.186;2023-11-19T12:05:43;3.60;;;1.37;;
809;SDS011;387;48.772;9.186;2023-11-19T12:08:10;4.50;;;1.23;;
809;SDS011;387;48.772;9.186;2023-11-19T12:10:49;2.30;;;0.90;;
809;SDS011;387;48.772;9.186;2023-11-19T12:13:16;1.43;;;0.90;;
809;SDS011;387;48.772;9.186;2023-11-19T12:18:28;2.83;;;1.17;;
809;SDS011;387;48.772;9.186;2023-11-19T12:20:54;2.20;;;1.17;;
809;SDS011;387;48.772;9.186;2023-11-19T12:23:22;1.40;;;0.80;;
809;SDS011;387;48.772;9.186;2023-11-19T12:25:49;2.53;;;0.90;;
809;SDS011;387;48.772;9.186;2023-11-19T12:28:15;2.30;;;0.90;;
809;SDS011;387;48.772;9.186;2023-11-19T12:30:44;1.37;;;0.80;;
809;SDS011;387;48.772;9.186;2023-11-19T12:33:11;2.77;;;0.87;;
809;SDS011;387;48.772;9.186;2023-11-19T12:35:41;2.47;;;1.03;;
809;SDS011;387;48.772;9.186;2023-11-19T12:38:07;1.50;;;0.90;;
809;SDS011;387;48.772;9.186;2023-11-19T12:40:35;1.30;;;0.83;;
809;SDS011;387;48.772;9.186;2023-11-19T12:43:00;1.77;;;1.00;;
809;SDS011;387;48.772;9.186;2023-11-19T12:45:35;2.50;;;0.70;;
809;SDS011;387;48.772;9.186;2023-11-19T12:48:05;1.17;;;0.77;;
809;SDS011;387;48.772;9.186;2023-11-19T12:50:54;1.10;;;0.80;;
809;SDS011;387;48.772;9.186;2023-11-19T12:53:23;1.40;;;0.90;;
809;SDS011;387;48.772;9.186;2023-11-19T12:55:49;2.43;;;0.97;;
809;SDS011;387;48.772;9.186;2023-11-19T12:58:28;1.37;;;0.80;;
809;SDS011;387;48.772;9.186;2023-11-19T13:01:01;2.80;;;0.87;;
809;SDS011;387;48.772;9.186;2023-11-19T13:03:31;1.93;;;1.00;;
809;SDS011;387;48.772;9.186;2023-11-19T13:06:01;1.67;;;0.90;;
809;SDS011;387;48.772;9.186;2023-11-19T13:08:28;2.23;;;0.93;;
809;SDS011;387;48.772;9.186;2023-11-19T13:11:00;1.47;;;0.90;;
809;SDS011;387;48.772;9.186;2023-11-19T13:13:26;1.87;;;0.90;;
809;SDS011;387;48.772;9.186;2023-11-19T13:15:51;3.50;;;1.17;;
809;SDS011;387;48.772;9.186;2023-11-19T13:18:17;1.27;;;0.90;;
809;SDS011;387;48.772;9.186;2023-11-19T13:20:42;2.90;;;1.00;;
809;SDS011;387;48.772;9.186;2023-11-19T13:23:08;1.00;;;0.73;;
809;SDS011;387;48.772;9.186;2023-11-19T13:25:35;2.33;;;1.17;;
809;SDS011;387;48.772;9.186;2023-11-19T13:28:01;2.30;;;0.90;;
809;SDS011;387;48.772;9.186;2023-11-19T13:30:27;2.23;;;1.03;;
809;SDS011;387;48.772;9.186;2023-11-19T13:32:53;3.03;;;1.17;;
809;SDS011;387;48.772;9.186;2023-11-19T13:35:20;2.40;;;1.00;;
809;SDS011;387;48.772;9.186;2023-11-19T13:37:46;2.10;;;1.03;;
809;SDS011;387;48.772;9.186;2023-11-19T13:40:12;1.70;;;0.90;;
809;SDS011;387;48.772;9.186;2023-11-19T13:42:42;2.93;;;0.90;;
809;SDS011;387;48.772;9.186;2023-11-19T13:45:11;3.73;;;1.07;;
809;SDS011;387;48.772;9.186;2023-11-19T13:47:44;1.57;;;0.77;;
809;SDS011;387;48.772;9.186;2023-11-19T13:50:11;2.53;;;1.10;;
809;SDS011;387;48.772;9.186;2023-11-19T13:52:38;3.93;;;1.00;;
809;SDS011;387;48.772;9.186;2023-11-19T13:55:08;4.40;;;1.83;;
809;SDS011;387;48.772;9.186;2023-11-19T13:57:35;1.47;;;0.80;;
809;SDS011;387;48.772;9.186;2023-11-19T14:00:02;1.30;;;0.67;;
809;SDS011;387;48.772;9.186;2023-11-19T14:02:34;2.43;;;1.23;;
809;SDS011;387;48.772;9.186;2023-11-19T14:05:00;2.27;;;1.07;;
809;SDS011;387;48.772;9.186;2023-11-19T14:07:25;2.60;;;1.33;;
809;SDS011;387;48.772;9.186;2023-11-19T14:09:51;2.50;;;0.90;;
809;SDS011;387;48.772;9.186;2023-11-19T14:12:17;1.40;;;0.80;;
809;SDS011;387;48.772;9.186;2023-11-19T14:14:43;1.10;;;0.70;;
809;SDS011;387;48.772;9.186;2023-11-19T14:17:08;1.70;;;1.00;;
809;SDS011;387;48.772;9.186;2023-11-19T14:19:35;1.30;;;0.90;;
809;SDS011;387;48.772;9.186;2023-11-19T14:22:01;1.40;;;1.10;;
809;SDS011;387;48.772;9.186;2023-11-19T14:24:27;2.50;;;0.83;;
809;SDS011;387;48.772;9.186;2023-11-19T14:26:53;2.20;;;1.00;;
809;SDS011;387;48.772;9.186;2023-11-19T14:29:18;7.20;;;1.20;;
809;SDS011;387;48.772;9.186;2023-11-19T14:31:44;2.80;;;1.10;;
809;SDS011;387;48.772;9.186;2023-11-19T14:34:10;4.80;;;2.07;;
809;SDS011;387;48.772;9.186;2023-11-19T14:36:35;2.20;;;1.10;;
809;SDS011;387;48.772;9.186;2023-11-19T14:39:01;2.60;;;0.90;;
809;SDS011;387;48.772;9.186;2023-11-19T14:41:26;1.93;;;1.30;;
809;SDS011;387;48.772;9.186;2023-11-19T14:43:52;3.60;;;1.00;;
809;SDS011;387;48.772;9.186;2023-11-19T14:46:18;2.80;;;1.00;;
809;SDS011;387;48.772;9.186;2023-11-19T14:48:43;1.63;;;1.20;;
809;SDS011;387;48.772;9.186;2023-11-19T14:51:09;1.73;;;1.03;;
809;SDS011;387;48.772;9.186;2023-11-19T14:53:35;1.43;;;1.07;;
809;SDS011;387;48.772;9.186;2023-11-19T14:56:01;6.27;;;2.80;;
809;SDS011;387;48.772;9.186;2023-11-19T14:58:27;1.30;;;1.00;;
809;SDS011;387;48.772;9.186;2023-11-19T15:00:52;2.03;;;1.27;;
809;SDS011;387;48.772;9.186;2023-11-19T15:03:18;2.17;;;1.10;;
809;SDS011;387;48.772;9.186;2023-11-19T15:05:47;2.43;;;1.40;;
809;SDS011;387;48.772;9.186;2023-11-19T15:08:13;3.03;;;1.50;;
809;SDS011;387;48.772;9.186;2023-11-19T15:10:41;1.73;;;1.00;;
809;SDS011;387;48.772;9.186;2023-11-19T15:13:07;1.43;;;0.87;;
809;SDS011;387;48.772;9.186;2023-11-19T15:15:34;2.33;;;1.20;;
809;SDS011;387;48.772;9.186;2023-11-19T15:17:59;1.40;;;1.17;;
809;SDS011;387;48.772;9.186;2023-11-19T15:20:25;1.63;;;1.10;;
809;SDS011;387;48.772;9.186;2023-11-19T15:22:54;1.20;;;0.90;;
809;SDS011;387;48.772;9.186;2023-11-19T15:25:23;3.67;;;1.03;;
809;SDS011;387;48.772;9.186;2023-11-19T15:27:49;2.17;;;1.00;;
809;SDS011;387;48.772;9.186;2023-11-19T15:30:15;1.30;;;0.63;;
809;SDS011;387;48.772;9.186;2023-11-19T15:32:41;2.20;;;1.10;;
809;SDS011;387;48.772;9.186;2023-11-19T15:35:08;2.53;;;1.60;;
809;SDS011;387;48.772;9.186;2023-11-19T15:37:37;3.60;;;1.23;;
809;SDS011;387;48.772;9.186;2023-11-19T15:40:05;3.60;;;1.10;;
809;SDS011;387;48.772;9.186;2023-11-19T15:42:33;1.30;;;1.00;;
809;SDS011;387;48.772;9.186;2023-11-19T15:44:59;1.90;;;1.00;;
809;SDS011;387;48.772;9.186;2023-11-19T15:47:25;1.00;;;0.80;;
809;SDS011;387;48.772;9.186;2023-11-19T15:49:50;2.10;;;0.90;;
809;SDS011;387;48.772;9.186;2023-11-19T15:52:16;2.10;;;1.43;;
809;SDS011;387;48.772;9.186;2023-11-19T15:54:42;2.17;;;1.10;;
809;SDS011;387;48.772;9.186;2023-11-19T15:57:07;2.50;;;1.10;;
809;SDS011;387;48.772;9.186;2023-11-19T15:59:33;1.33;;;0.90;;